sensor_id;sensor_type;location;lat;lon;timestamp;P1;durP1;ratioP1;P2;durP2;ratioP2
50350;SDS011;36250;48.740;22.174;2022-12-10T00:01:46;21.40;;;12.55;;
50350;SDS011;36250;48.740;22.174;2022-12-10T00:04:13;19.80;;;12.75;;
50350;SDS011;36250;48.740;22.174;2022-12-10T00:06:39;26.77;;;13.73;;
50350;SDS011;36250;48.740;22.174;2022-12-10T00:09:06;20.45;;;13.57;;
50350;SDS011;36250;48.740;22.174;2022-12-10T00:11:33;20.38;;;12.57;;
50350;SDS011;36250;48.740;22.174;2022-12-10T00:13:59;22.40;;;14.00;;
50350;SDS011;36250;48.740;22.174;2022-12-10T00:16:25;25.05;;;11.75;;
50350;SDS011;36250;48.740;22.174;2022-12-10T00:18:53;24.38;;;13.65;;
50350;SDS011;36250;48.740;22.174;2022-12-10T00:21:23;24.38;;;13.43;;
50350;SDS011;36250;48.740;22.174;2022-12-10T00:23:50;30.25;;;14.05;;
50350;SDS011;36250;48.740;22.174;2022-12-10T00:26:20;21.05;;;13.50;;
50350;SDS011;36250;48.740;22.174;2022-12-10T00:28:50;24.92;;;12.07;;
50350;SDS011;36250;48.740;22.174;2022-12-10T00:31:17;22.48;;;12.00;;
50350;SDS011;36250;48.740;22.174;2022-12-10T00:33:45;22.95;;;12.77;;
50350;SDS011;36250;48.740;22.174;2022-12-10T00:36:12;20.83;;;12.20;;
50350;SDS011;36250;48.740;22.174;2022-12-10T00:38:39;25.83;;;13.20;;
50350;SDS011;36250;48.740;22.174;2022-12-10T00:41:06;22.48;;;12.57;;
50350;SDS011;36250;48.740;22.174;2022-12-10T00:43:31;23.30;;;13.35;;
50350;SDS011;36250;48.740;22.174;2022-12-10T00:45:57;18.58;;;11.82;;
50350;SDS011;36250;48.740;22.174;2022-12-10T00:48:22;19.63;;;11.52;;
50350;SDS011;36250;48.740;22.174;2022-12-10T00:51:22;24.50;;;11.82;;
50350;SDS011;36250;48.740;22.174;2022-12-10T00:53:46;17.35;;;10.07;;
50350;SDS011;36250;48.740;22.174;2022-12-10T00:56:13;14.90;;;9.63;;
50350;SDS011;36250;48.740;22.174;2022-12-10T00:58:42;20.20;;;10.32;;
50350;SDS011;36250;48.740;22.174;2022-12-10T01:04:00;19.30;;;10.40;;
50350;SDS011;36250;48.740;22.174;2022-12-10T01:06:33;23.10;;;10.05;;
50350;SDS011;36250;48.740;22.174;2022-12-10T01:09:07;22.55;;;10.60;;
50350;SDS011;36250;48.740;22.174;2022-12-10T01:11:37;22.70;;;10.13;;
50350;SDS011;36250;48.740;22.174;2022-12-10T01:14:05;23.92;;;10.35;;
50350;SDS011;36250;48.740;22.174;2022-12-10T01:16:31;18.42;;;9.60;;
50350;SDS011;36250;48.740;22.174;2022-12-10T01:18:57;17.63;;;10.93;;
50350;SDS011;36250;48.740;22.174;2022-12-10T01:21:26;18.05;;;11.07;;
50350;SDS011;36250;48.740;22.174;2022-12-10T01:23:52;20.15;;;10.90;;
50350;SDS011;36250;48.740;22.174;2022-12-10T01:26:19;16.55;;;10.02;;
50350;SDS011;36250;48.740;22.174;2022-12-10T01:28:47;19.85;;;11.80;;
50350;SDS011;36250;48.740;22.174;2022-12-10T01:31:15;16.77;;;10.10;;
50350;SDS011;36250;48.740;22.174;2022-12-10T01:33:45;17.70;;;10.55;;
50350;SDS011;36250;48.740;22.174;2022-12-10T01:36:21;22.42;;;11.88;;
50350;SDS011;36250;48.740;22.174;2022-12-10T01:38:48;26.83;;;12.05;;
50350;SDS011;36250;48.740;22.174;2022-12-10T01:41:18;23.30;;;11.85;;
50350;SDS011;36250;48.740;22.174;2022-12-10T01:43:57;23.83;;;12.00;;
50350;SDS011;36250;48.740;22.174;2022-12-10T01:46:29;21.98;;;12.07;;
50350;SDS011;36250;48.740;22.174;2022-12-10T01:49:00;22.08;;;10.35;;
50350;SDS011;36250;48.740;22.174;2022-12-10T01:51:29;19.33;;;11.98;;
50350;SDS011;36250;48.740;22.174;2022-12-10T01:53:55;18.17;;;10.35;;
50350;SDS011;36250;48.740;22.174;2022-12-10T01:56:22;20.73;;;10.25;;
50350;SDS011;36250;48.740;22.174;2022-12-10T01:58:48;18.65;;;10.75;;
50350;SDS011;36250;48.740;22.174;2022-12-10T02:11:49;15.98;;;10.18;;
50350;SDS011;36250;48.740;22.174;2022-12-10T02:20:16;15.70;;;10.15;;
50350;SDS011;36250;48.740;22.174;2022-12-10T02:22:49;17.85;;;10.00;;
50350;SDS011;36250;48.740;22.174;2022-12-10T02:25:19;16.15;;;10.40;;
50350;SDS011;36250;48.740;22.174;2022-12-10T02:30:43;19.63;;;10.75;;
50350;SDS011;36250;48.740;22.174;2022-12-10T02:33:11;17.27;;;10.30;;
50350;SDS011;36250;48.740;22.174;2022-12-10T02:35:39;21.98;;;11.55;;
50350;SDS011;36250;48.740;22.174;2022-12-10T02:38:11;19.52;;;12.60;;
50350;SDS011;36250;48.740;22.174;2022-12-10T02:40:42;17.73;;;11.90;;
50350;SDS011;36250;48.740;22.174;2022-12-10T02:43:11;18.13;;;11.38;;
50350;SDS011;36250;48.740;22.174;2022-12-10T02:45:38;22.20;;;11.65;;
50350;SDS011;36250;48.740;22.174;2022-12-10T02:48:04;18.38;;;10.98;;
50350;SDS011;36250;48.740;22.174;2022-12-10T02:50:30;18.90;;;11.27;;
50350;SDS011;36250;48.740;22.174;2022-12-10T02:52:56;23.15;;;11.35;;
50350;SDS011;36250;48.740;22.174;2022-12-10T02:55:21;19.35;;;11.77;;
50350;SDS011;36250;48.740;22.174;2022-12-10T03:00:22;21.50;;;12.13;;
50350;SDS011;36250;48.740;22.174;2022-12-10T03:10:57;24.45;;;13.07;;
50350;SDS011;36250;48.740;22.174;2022-12-10T03:13:35;25.70;;;13.23;;
50350;SDS011;36250;48.740;22.174;2022-12-10T03:16:06;21.35;;;13.07;;
50350;SDS011;36250;48.740;22.174;2022-12-10T03:18:34;21.92;;;12.48;;
50350;SDS011;36250;48.740;22.174;2022-12-10T03:21:02;19.83;;;12.20;;
50350;SDS011;36250;48.740;22.174;2022-12-10T03:23:30;19.63;;;11.95;;
50350;SDS011;36250;48.740;22.174;2022-12-10T03:25:57;26.50;;;13.18;;
50350;SDS011;36250;48.740;22.174;2022-12-10T03:28:23;24.65;;;12.35;;
50350;SDS011;36250;48.740;22.174;2022-12-10T03:30:50;20.80;;;12.65;;
50350;SDS011;36250;48.740;22.174;2022-12-10T03:33:19;25.20;;;11.82;;
50350;SDS011;36250;48.740;22.174;2022-12-10T03:35:45;22.55;;;12.88;;
50350;SDS011;36250;48.740;22.174;2022-12-10T03:38:11;25.30;;;14.07;;
50350;SDS011;36250;48.740;22.174;2022-12-10T03:40:39;27.08;;;12.50;;
50350;SDS011;36250;48.740;22.174;2022-12-10T03:43:05;16.65;;;12.68;;
50350;SDS011;36250;48.740;22.174;2022-12-10T03:45:30;21.88;;;14.02;;
50350;SDS011;36250;48.740;22.174;2022-12-10T03:47:55;28.23;;;14.63;;
50350;SDS011;36250;48.740;22.174;2022-12-10T03:50:21;28.75;;;17.80;;
50350;SDS011;36250;48.740;22.174;2022-12-10T03:52:46;31.70;;;19.73;;
50350;SDS011;36250;48.740;22.174;2022-12-10T03:55:11;28.08;;;18.55;;
50350;SDS011;36250;48.740;22.174;2022-12-10T03:57:37;27.02;;;15.80;;
50350;SDS011;36250;48.740;22.174;2022-12-10T04:00:03;25.73;;;13.93;;
50350;SDS011;36250;48.740;22.174;2022-12-10T04:02:30;26.52;;;14.70;;
50350;SDS011;36250;48.740;22.174;2022-12-10T04:04:55;22.63;;;15.57;;
50350;SDS011;36250;48.740;22.174;2022-12-10T04:07:20;25.73;;;16.27;;
50350;SDS011;36250;48.740;22.174;2022-12-10T04:09:46;26.50;;;15.75;;
50350;SDS011;36250;48.740;22.174;2022-12-10T04:12:11;25.27;;;16.30;;
50350;SDS011;36250;48.740;22.174;2022-12-10T04:14:36;27.17;;;17.25;;
50350;SDS011;36250;48.740;22.174;2022-12-10T04:17:20;26.25;;;15.60;;
50350;SDS011;36250;48.740;22.174;2022-12-10T04:19:45;32.03;;;15.75;;
50350;SDS011;36250;48.740;22.174;2022-12-10T04:22:10;23.85;;;15.50;;
50350;SDS011;36250;48.740;22.174;2022-12-10T04:24:54;33.78;;;17.70;;
50350;SDS011;36250;48.740;22.174;2022-12-10T04:27:38;27.33;;;16.67;;
50350;SDS011;36250;48.740;22.174;2022-12-10T04:30:05;26.63;;;17.33;;
50350;SDS011;36250;48.740;22.174;2022-12-10T04:32:33;31.25;;;17.83;;
50350;SDS011;36250;48.740;22.174;2022-12-10T04:34:58;31.33;;;19.20;;
50350;SDS011;36250;48.740;22.174;2022-12-10T04:37:24;30.30;;;18.15;;
50350;SDS011;36250;48.740;22.174;2022-12-10T04:39:50;29.88;;;17.80;;
50350;SDS011;36250;48.740;22.174;2022-12-10T04:42:16;29.40;;;18.33;;
50350;SDS011;36250;48.740;22.174;2022-12-10T04:44:42;30.92;;;19.27;;
50350;SDS011;36250;48.740;22.174;2022-12-10T04:47:07;34.28;;;18.65;;
50350;SDS011;36250;48.740;22.174;2022-12-10T04:49:34;32.33;;;18.92;;
50350;SDS011;36250;48.740;22.174;2022-12-10T04:52:00;38.95;;;19.60;;
50350;SDS011;36250;48.740;22.174;2022-12-10T04:54:26;37.25;;;19.70;;
50350;SDS011;36250;48.740;22.174;2022-12-10T04:56:52;34.92;;;20.42;;
50350;SDS011;36250;48.740;22.174;2022-12-10T04:59:17;35.92;;;20.15;;
50350;SDS011;36250;48.740;22.174;2022-12-10T05:01:42;45.85;;;21.38;;
50350;SDS011;36250;48.740;22.174;2022-12-10T05:04:09;39.22;;;20.52;;
50350;SDS011;36250;48.740;22.174;2022-12-10T05:06:36;37.35;;;22.85;;
50350;SDS011;36250;48.740;22.174;2022-12-10T05:09:02;37.72;;;20.80;;
50350;SDS011;36250;48.740;22.174;2022-12-10T05:11:29;41.88;;;20.33;;
50350;SDS011;36250;48.740;22.174;2022-12-10T05:13:56;37.28;;;20.90;;
50350;SDS011;36250;48.740;22.174;2022-12-10T05:16:22;41.10;;;22.10;;
50350;SDS011;36250;48.740;22.174;2022-12-10T05:18:49;38.83;;;22.27;;
50350;SDS011;36250;48.740;22.174;2022-12-10T05:21:15;39.38;;;22.73;;
50350;SDS011;36250;48.740;22.174;2022-12-10T05:23:43;43.05;;;22.88;;
50350;SDS011;36250;48.740;22.174;2022-12-10T05:26:12;31.92;;;20.60;;
50350;SDS011;36250;48.740;22.174;2022-12-10T05:28:49;38.38;;;21.58;;
50350;SDS011;36250;48.740;22.174;2022-12-10T05:31:27;29.73;;;20.35;;
50350;SDS011;36250;48.740;22.174;2022-12-10T05:33:54;32.00;;;20.13;;
50350;SDS011;36250;48.740;22.174;2022-12-10T05:36:21;38.20;;;20.05;;
50350;SDS011;36250;48.740;22.174;2022-12-10T05:38:51;35.22;;;20.73;;
50350;SDS011;36250;48.740;22.174;2022-12-10T05:41:19;38.17;;;22.65;;
50350;SDS011;36250;48.740;22.174;2022-12-10T05:43:46;42.53;;;24.00;;
50350;SDS011;36250;48.740;22.174;2022-12-10T05:46:13;45.65;;;28.95;;
50350;SDS011;36250;48.740;22.174;2022-12-10T05:48:40;49.08;;;30.75;;
50350;SDS011;36250;48.740;22.174;2022-12-10T05:51:09;53.85;;;35.20;;
50350;SDS011;36250;48.740;22.174;2022-12-10T05:53:36;57.70;;;33.17;;
50350;SDS011;36250;48.740;22.174;2022-12-10T05:56:06;61.95;;;38.47;;
50350;SDS011;36250;48.740;22.174;2022-12-10T05:58:38;59.85;;;37.72;;
50350;SDS011;36250;48.740;22.174;2022-12-10T06:01:08;54.40;;;31.00;;
50350;SDS011;36250;48.740;22.174;2022-12-10T06:03:43;38.72;;;26.13;;
50350;SDS011;36250;48.740;22.174;2022-12-10T06:06:09;44.28;;;30.02;;
50350;SDS011;36250;48.740;22.174;2022-12-10T06:08:35;37.58;;;27.45;;
50350;SDS011;36250;48.740;22.174;2022-12-10T06:11:02;44.33;;;30.98;;
50350;SDS011;36250;48.740;22.174;2022-12-10T06:13:28;45.80;;;29.75;;
50350;SDS011;36250;48.740;22.174;2022-12-10T06:15:54;48.97;;;31.90;;
50350;SDS011;36250;48.740;22.174;2022-12-10T06:18:20;57.00;;;33.00;;
50350;SDS011;36250;48.740;22.174;2022-12-10T06:20:46;50.33;;;28.75;;
50350;SDS011;36250;48.740;22.174;2022-12-10T06:23:11;41.30;;;27.42;;
50350;SDS011;36250;48.740;22.174;2022-12-10T06:25:39;47.75;;;27.25;;
50350;SDS011;36250;48.740;22.174;2022-12-10T06:28:05;57.03;;;30.60;;
50350;SDS011;36250;48.740;22.174;2022-12-10T06:30:32;49.40;;;25.52;;
50350;SDS011;36250;48.740;22.174;2022-12-10T06:32:57;54.75;;;27.67;;
50350;SDS011;36250;48.740;22.174;2022-12-10T06:35:22;67.93;;;30.67;;
50350;SDS011;36250;48.740;22.174;2022-12-10T06:37:48;48.55;;;28.70;;
50350;SDS011;36250;48.740;22.174;2022-12-10T06:40:14;76.82;;;40.88;;
50350;SDS011;36250;48.740;22.174;2022-12-10T06:42:40;71.28;;;39.72;;
50350;SDS011;36250;48.740;22.174;2022-12-10T06:45:06;77.65;;;40.72;;
50350;SDS011;36250;48.740;22.174;2022-12-10T06:47:31;74.60;;;40.97;;
50350;SDS011;36250;48.740;22.174;2022-12-10T06:49:57;95.05;;;51.60;;
50350;SDS011;36250;48.740;22.174;2022-12-10T06:52:22;62.65;;;30.23;;
50350;SDS011;36250;48.740;22.174;2022-12-10T06:54:47;114.82;;;34.97;;
50350;SDS011;36250;48.740;22.174;2022-12-10T06:57:13;108.78;;;33.92;;
50350;SDS011;36250;48.740;22.174;2022-12-10T06:59:38;74.97;;;27.15;;
50350;SDS011;36250;48.740;22.174;2022-12-10T07:02:03;88.10;;;27.88;;
50350;SDS011;36250;48.740;22.174;2022-12-10T07:04:29;95.70;;;29.70;;
50350;SDS011;36250;48.740;22.174;2022-12-10T07:06:54;94.07;;;30.48;;
50350;SDS011;36250;48.740;22.174;2022-12-10T07:09:19;87.05;;;28.95;;
50350;SDS011;36250;48.740;22.174;2022-12-10T07:11:45;123.72;;;35.05;;
50350;SDS011;36250;48.740;22.174;2022-12-10T07:14:14;85.85;;;30.92;;
50350;SDS011;36250;48.740;22.174;2022-12-10T07:16:41;118.53;;;35.47;;
50350;SDS011;36250;48.740;22.174;2022-12-10T07:19:08;83.03;;;35.70;;
50350;SDS011;36250;48.740;22.174;2022-12-10T07:21:36;92.10;;;38.33;;
50350;SDS011;36250;48.740;22.174;2022-12-10T07:24:05;79.53;;;37.33;;
50350;SDS011;36250;48.740;22.174;2022-12-10T07:26:33;84.45;;;36.85;;
50350;SDS011;36250;48.740;22.174;2022-12-10T07:29:02;84.93;;;35.42;;
50350;SDS011;36250;48.740;22.174;2022-12-10T07:31:29;84.80;;;36.58;;
50350;SDS011;36250;48.740;22.174;2022-12-10T07:33:54;81.40;;;34.65;;
50350;SDS011;36250;48.740;22.174;2022-12-10T07:36:22;90.32;;;36.83;;
50350;SDS011;36250;48.740;22.174;2022-12-10T07:38:49;99.45;;;37.15;;
50350;SDS011;36250;48.740;22.174;2022-12-10T07:41:16;103.75;;;48.13;;
50350;SDS011;36250;48.740;22.174;2022-12-10T07:43:42;103.22;;;46.22;;
50350;SDS011;36250;48.740;22.174;2022-12-10T07:46:10;94.45;;;41.65;;
50350;SDS011;36250;48.740;22.174;2022-12-10T07:48:38;171.10;;;62.50;;
50350;SDS011;36250;48.740;22.174;2022-12-10T07:51:04;143.38;;;61.55;;
50350;SDS011;36250;48.740;22.174;2022-12-10T07:53:31;97.18;;;35.22;;
50350;SDS011;36250;48.740;22.174;2022-12-10T07:55:56;133.52;;;39.25;;
50350;SDS011;36250;48.740;22.174;2022-12-10T07:58:22;113.80;;;41.70;;
50350;SDS011;36250;48.740;22.174;2022-12-10T08:00:47;108.68;;;39.55;;
50350;SDS011;36250;48.740;22.174;2022-12-10T08:03:12;145.80;;;48.60;;
50350;SDS011;36250;48.740;22.174;2022-12-10T08:05:38;107.35;;;38.10;;
50350;SDS011;36250;48.740;22.174;2022-12-10T08:08:03;84.85;;;34.80;;
50350;SDS011;36250;48.740;22.174;2022-12-10T08:10:29;61.92;;;30.52;;
50350;SDS011;36250;48.740;22.174;2022-12-10T08:12:55;59.50;;;29.35;;
50350;SDS011;36250;48.740;22.174;2022-12-10T08:15:20;47.05;;;25.70;;
50350;SDS011;36250;48.740;22.174;2022-12-10T08:17:45;38.13;;;21.58;;
50350;SDS011;36250;48.740;22.174;2022-12-10T08:20:11;40.40;;;19.80;;
50350;SDS011;36250;48.740;22.174;2022-12-10T08:22:36;40.55;;;24.33;;
50350;SDS011;36250;48.740;22.174;2022-12-10T08:25:02;40.35;;;21.80;;
50350;SDS011;36250;48.740;22.174;2022-12-10T08:27:27;42.65;;;26.50;;
50350;SDS011;36250;48.740;22.174;2022-12-10T08:29:53;39.00;;;24.20;;
50350;SDS011;36250;48.740;22.174;2022-12-10T08:32:18;48.10;;;26.83;;
50350;SDS011;36250;48.740;22.174;2022-12-10T08:34:44;29.42;;;18.85;;
50350;SDS011;36250;48.740;22.174;2022-12-10T08:37:09;25.80;;;15.10;;
50350;SDS011;36250;48.740;22.174;2022-12-10T08:39:35;39.65;;;27.73;;
50350;SDS011;36250;48.740;22.174;2022-12-10T08:42:00;65.90;;;45.55;;
50350;SDS011;36250;48.740;22.174;2022-12-10T08:44:25;58.15;;;43.17;;
50350;SDS011;36250;48.740;22.174;2022-12-10T08:46:51;87.85;;;62.50;;
50350;SDS011;36250;48.740;22.174;2022-12-10T08:49:16;46.28;;;33.38;;
50350;SDS011;36250;48.740;22.174;2022-12-10T08:51:41;20.25;;;16.90;;
50350;SDS011;36250;48.740;22.174;2022-12-10T08:54:07;95.97;;;70.10;;
50350;SDS011;36250;48.740;22.174;2022-12-10T08:56:32;44.15;;;26.00;;
50350;SDS011;36250;48.740;22.174;2022-12-10T08:58:57;22.90;;;13.93;;
50350;SDS011;36250;48.740;22.174;2022-12-10T09:01:23;21.70;;;13.35;;
50350;SDS011;36250;48.740;22.174;2022-12-10T09:03:48;38.25;;;22.75;;
50350;SDS011;36250;48.740;22.174;2022-12-10T09:06:16;35.28;;;21.70;;
50350;SDS011;36250;48.740;22.174;2022-12-10T09:08:43;19.23;;;13.45;;
50350;SDS011;36250;48.740;22.174;2022-12-10T09:11:09;10.52;;;7.95;;
50350;SDS011;36250;48.740;22.174;2022-12-10T09:13:37;12.93;;;6.60;;
50350;SDS011;36250;48.740;22.174;2022-12-10T09:16:02;11.23;;;6.15;;
50350;SDS011;36250;48.740;22.174;2022-12-10T09:18:28;7.43;;;5.60;;
50350;SDS011;36250;48.740;22.174;2022-12-10T09:20:53;6.78;;;5.63;;
50350;SDS011;36250;48.740;22.174;2022-12-10T09:23:19;7.13;;;5.93;;
50350;SDS011;36250;48.740;22.174;2022-12-10T09:25:45;7.38;;;5.18;;
50350;SDS011;36250;48.740;22.174;2022-12-10T09:28:11;8.15;;;4.88;;
50350;SDS011;36250;48.740;22.174;2022-12-10T09:30:36;8.43;;;5.53;;
50350;SDS011;36250;48.740;22.174;2022-12-10T09:33:01;6.47;;;4.95;;
50350;SDS011;36250;48.740;22.174;2022-12-10T09:35:27;5.25;;;4.75;;
50350;SDS011;36250;48.740;22.174;2022-12-10T09:37:52;4.75;;;4.35;;
50350;SDS011;36250;48.740;22.174;2022-12-10T09:40:18;3.88;;;3.47;;
50350;SDS011;36250;48.740;22.174;2022-12-10T09:42:59;3.30;;;3.00;;
50350;SDS011;36250;48.740;22.174;2022-12-10T09:45:46;3.05;;;2.75;;
50350;SDS011;36250;48.740;22.174;2022-12-10T09:53:34;3.15;;;2.70;;
50350;SDS011;36250;48.740;22.174;2022-12-10T09:56:01;3.03;;;2.78;;
50350;SDS011;36250;48.740;22.174;2022-12-10T09:58:27;7.50;;;3.42;;
50350;SDS011;36250;48.740;22.174;2022-12-10T10:03:26;7.03;;;3.13;;
50350;SDS011;36250;48.740;22.174;2022-12-10T10:05:56;2.47;;;2.28;;
50350;SDS011;36250;48.740;22.174;2022-12-10T10:08:41;4.03;;;3.13;;
50350;SDS011;36250;48.740;22.174;2022-12-10T10:11:11;2.40;;;2.20;;
50350;SDS011;36250;48.740;22.174;2022-12-10T10:16:57;5.72;;;2.88;;
50350;SDS011;36250;48.740;22.174;2022-12-10T10:19:27;3.10;;;2.80;;
50350;SDS011;36250;48.740;22.174;2022-12-10T10:21:55;3.25;;;2.95;;
50350;SDS011;36250;48.740;22.174;2022-12-10T10:24:22;4.85;;;4.15;;
50350;SDS011;36250;48.740;22.174;2022-12-10T10:26:56;5.85;;;5.07;;
50350;SDS011;36250;48.740;22.174;2022-12-10T10:32:09;5.43;;;4.80;;
50350;SDS011;36250;48.740;22.174;2022-12-10T10:34:41;5.45;;;4.78;;
50350;SDS011;36250;48.740;22.174;2022-12-10T10:37:13;5.82;;;5.28;;
50350;SDS011;36250;48.740;22.174;2022-12-10T10:39:45;9.13;;;5.25;;
50350;SDS011;36250;48.740;22.174;2022-12-10T10:42:26;5.60;;;5.05;;
50350;SDS011;36250;48.740;22.174;2022-12-10T10:44:58;5.32;;;4.70;;
50350;SDS011;36250;48.740;22.174;2022-12-10T10:47:30;6.38;;;5.72;;
50350;SDS011;36250;48.740;22.174;2022-12-10T10:49:57;6.03;;;5.40;;
50350;SDS011;36250;48.740;22.174;2022-12-10T10:52:25;10.80;;;4.47;;
50350;SDS011;36250;48.740;22.174;2022-12-10T10:54:54;5.20;;;4.70;;
50350;SDS011;36250;48.740;22.174;2022-12-10T10:57:24;5.50;;;4.88;;
50350;SDS011;36250;48.740;22.174;2022-12-10T10:59:54;8.48;;;6.05;;
50350;SDS011;36250;48.740;22.174;2022-12-10T11:02:35;6.60;;;5.85;;
50350;SDS011;36250;48.740;22.174;2022-12-10T11:05:07;7.22;;;6.47;;
50350;SDS011;36250;48.740;22.174;2022-12-10T11:07:40;11.23;;;9.55;;
50350;SDS011;36250;48.740;22.174;2022-12-10T11:10:17;10.20;;;9.18;;
50350;SDS011;36250;48.740;22.174;2022-12-10T11:12:46;15.48;;;10.25;;
50350;SDS011;36250;48.740;22.174;2022-12-10T11:17:49;55.83;;;39.80;;
50350;SDS011;36250;48.740;22.174;2022-12-10T11:20:34;26.27;;;18.98;;
50350;SDS011;36250;48.740;22.174;2022-12-10T11:23:00;14.98;;;10.82;;
50350;SDS011;36250;48.740;22.174;2022-12-10T11:25:35;19.25;;;14.55;;
50350;SDS011;36250;48.740;22.174;2022-12-10T11:28:16;15.48;;;12.10;;
50350;SDS011;36250;48.740;22.174;2022-12-10T11:33:46;94.18;;;75.20;;
50350;SDS011;36250;48.740;22.174;2022-12-10T11:36:25;28.35;;;20.33;;
50350;SDS011;36250;48.740;22.174;2022-12-10T11:48:18;14.82;;;12.20;;
50350;SDS011;36250;48.740;22.174;2022-12-10T11:51:05;21.50;;;10.93;;
50350;SDS011;36250;48.740;22.174;2022-12-10T11:56:43;28.05;;;18.60;;
50350;SDS011;36250;48.740;22.174;2022-12-10T12:01:46;47.20;;;27.67;;
50350;SDS011;36250;48.740;22.174;2022-12-10T12:10:05;71.28;;;39.08;;
50350;SDS011;36250;48.740;22.174;2022-12-10T12:12:39;62.25;;;41.13;;
50350;SDS011;36250;48.740;22.174;2022-12-10T12:17:56;33.83;;;26.02;;
50350;SDS011;36250;48.740;22.174;2022-12-10T12:26:38;40.47;;;27.20;;
50350;SDS011;36250;48.740;22.174;2022-12-10T12:31:54;33.13;;;22.58;;
50350;SDS011;36250;48.740;22.174;2022-12-10T12:34:41;22.00;;;16.52;;
50350;SDS011;36250;48.740;22.174;2022-12-10T12:37:12;36.35;;;27.13;;
50350;SDS011;36250;48.740;22.174;2022-12-10T12:45:01;26.85;;;19.80;;
50350;SDS011;36250;48.740;22.174;2022-12-10T12:53:18;12.70;;;9.85;;
50350;SDS011;36250;48.740;22.174;2022-12-10T13:01:40;30.50;;;17.95;;
50350;SDS011;36250;48.740;22.174;2022-12-10T13:04:11;32.33;;;18.58;;
50350;SDS011;36250;48.740;22.174;2022-12-10T13:06:38;30.95;;;18.88;;
50350;SDS011;36250;48.740;22.174;2022-12-10T13:11:42;40.17;;;18.83;;
50350;SDS011;36250;48.740;22.174;2022-12-10T13:14:29;36.10;;;22.63;;
50350;SDS011;36250;48.740;22.174;2022-12-10T13:17:30;45.20;;;26.83;;
50350;SDS011;36250;48.740;22.174;2022-12-10T13:20:47;61.72;;;33.42;;
50350;SDS011;36250;48.740;22.174;2022-12-10T13:22:58;19.23;;;11.27;;
50350;SDS011;36250;48.740;22.174;2022-12-10T13:31:36;19.85;;;11.35;;
50350;SDS011;36250;48.740;22.174;2022-12-10T13:33:49;13.68;;;10.10;;
50350;SDS011;36250;48.740;22.174;2022-12-10T13:37:02;11.35;;;8.23;;
50350;SDS011;36250;48.740;22.174;2022-12-10T13:39:46;206.15;;;156.88;;
50350;SDS011;36250;48.740;22.174;2022-12-10T13:42:32;52.42;;;31.42;;
50350;SDS011;36250;48.740;22.174;2022-12-10T13:47:46;30.75;;;17.88;;
50350;SDS011;36250;48.740;22.174;2022-12-10T13:50:42;59.20;;;39.05;;
50350;SDS011;36250;48.740;22.174;2022-12-10T13:55:55;110.90;;;67.70;;
50350;SDS011;36250;48.740;22.174;2022-12-10T14:06:26;76.60;;;57.95;;
50350;SDS011;36250;48.740;22.174;2022-12-10T14:09:08;39.85;;;27.10;;
50350;SDS011;36250;48.740;22.174;2022-12-10T14:11:43;26.80;;;18.77;;
50350;SDS011;36250;48.740;22.174;2022-12-10T14:14:16;45.80;;;33.15;;
50350;SDS011;36250;48.740;22.174;2022-12-10T14:16:48;15.50;;;11.85;;
50350;SDS011;36250;48.740;22.174;2022-12-10T14:19:14;25.23;;;17.08;;
50350;SDS011;36250;48.740;22.174;2022-12-10T14:21:42;67.45;;;60.22;;
50350;SDS011;36250;48.740;22.174;2022-12-10T14:24:25;33.42;;;28.50;;
50350;SDS011;36250;48.740;22.174;2022-12-10T14:26:56;16.30;;;12.77;;
50350;SDS011;36250;48.740;22.174;2022-12-10T14:29:23;8.90;;;8.00;;
50350;SDS011;36250;48.740;22.174;2022-12-10T14:31:49;13.32;;;11.38;;
50350;SDS011;36250;48.740;22.174;2022-12-10T14:34:16;9.80;;;6.97;;
50350;SDS011;36250;48.740;22.174;2022-12-10T14:36:46;18.25;;;10.52;;
50350;SDS011;36250;48.740;22.174;2022-12-10T14:39:25;15.85;;;12.77;;
50350;SDS011;36250;48.740;22.174;2022-12-10T14:41:53;12.30;;;7.80;;
50350;SDS011;36250;48.740;22.174;2022-12-10T14:46:51;22.60;;;15.60;;
50350;SDS011;36250;48.740;22.174;2022-12-10T14:49:19;22.75;;;15.02;;
50350;SDS011;36250;48.740;22.174;2022-12-10T14:51:48;30.35;;;19.70;;
50350;SDS011;36250;48.740;22.174;2022-12-10T14:54:30;8.38;;;5.72;;
50350;SDS011;36250;48.740;22.174;2022-12-10T14:57:04;15.10;;;8.85;;
50350;SDS011;36250;48.740;22.174;2022-12-10T15:02:13;10.05;;;6.35;;
50350;SDS011;36250;48.740;22.174;2022-12-10T15:04:49;10.88;;;6.07;;
50350;SDS011;36250;48.740;22.174;2022-12-10T15:07:23;16.40;;;8.68;;
50350;SDS011;36250;48.740;22.174;2022-12-10T15:09:52;20.52;;;10.38;;
50350;SDS011;36250;48.740;22.174;2022-12-10T15:12:20;24.90;;;12.98;;
50350;SDS011;36250;48.740;22.174;2022-12-10T15:14:59;9.82;;;4.03;;
50350;SDS011;36250;48.740;22.174;2022-12-10T15:17:33;30.27;;;14.27;;
50350;SDS011;36250;48.740;22.174;2022-12-10T15:20:00;101.43;;;44.35;;
50350;SDS011;36250;48.740;22.174;2022-12-10T15:22:26;138.98;;;54.47;;
50350;SDS011;36250;48.740;22.174;2022-12-10T15:24:53;164.82;;;69.53;;
50350;SDS011;36250;48.740;22.174;2022-12-10T15:27:20;88.13;;;40.03;;
50350;SDS011;36250;48.740;22.174;2022-12-10T15:29:47;15.48;;;11.45;;
50350;SDS011;36250;48.740;22.174;2022-12-10T15:32:13;127.97;;;53.58;;
50350;SDS011;36250;48.740;22.174;2022-12-10T15:34:45;143.93;;;63.13;;
50350;SDS011;36250;48.740;22.174;2022-12-10T15:37:23;86.85;;;41.72;;
50350;SDS011;36250;48.740;22.174;2022-12-10T15:39:55;96.05;;;44.97;;
50350;SDS011;36250;48.740;22.174;2022-12-10T15:42:27;38.80;;;19.98;;
50350;SDS011;36250;48.740;22.174;2022-12-10T15:44:54;17.25;;;10.13;;
50350;SDS011;36250;48.740;22.174;2022-12-10T15:47:22;61.60;;;28.17;;
50350;SDS011;36250;48.740;22.174;2022-12-10T15:49:50;91.43;;;43.65;;
50350;SDS011;36250;48.740;22.174;2022-12-10T15:52:23;85.93;;;43.33;;
50350;SDS011;36250;48.740;22.174;2022-12-10T15:54:51;159.73;;;83.25;;
50350;SDS011;36250;48.740;22.174;2022-12-10T15:57:21;45.50;;;25.58;;
50350;SDS011;36250;48.740;22.174;2022-12-10T15:59:49;66.85;;;34.63;;
50350;SDS011;36250;48.740;22.174;2022-12-10T16:07:38;35.08;;;24.23;;
50350;SDS011;36250;48.740;22.174;2022-12-10T16:10:04;54.00;;;30.65;;
50350;SDS011;36250;48.740;22.174;2022-12-10T16:12:31;48.72;;;35.13;;
50350;SDS011;36250;48.740;22.174;2022-12-10T16:14:59;91.70;;;59.92;;
50350;SDS011;36250;48.740;22.174;2022-12-10T16:17:28;120.97;;;74.32;;
50350;SDS011;36250;48.740;22.174;2022-12-10T16:19:56;54.60;;;32.83;;
50350;SDS011;36250;48.740;22.174;2022-12-10T16:22:23;30.63;;;20.45;;
50350;SDS011;36250;48.740;22.174;2022-12-10T16:24:48;15.30;;;11.32;;
50350;SDS011;36250;48.740;22.174;2022-12-10T16:27:14;16.52;;;13.07;;
50350;SDS011;36250;48.740;22.174;2022-12-10T16:29:40;82.93;;;54.47;;
50350;SDS011;36250;48.740;22.174;2022-12-10T16:32:09;51.30;;;35.72;;
50350;SDS011;36250;48.740;22.174;2022-12-10T16:34:35;61.78;;;45.33;;
50350;SDS011;36250;48.740;22.174;2022-12-10T16:37:01;27.50;;;22.63;;